Time;durP1;ratioP1;P1;durP2;ratioP2;P2;SDS_P1;SDS_P2;PMS_P1;PMS_P2;Temp;Humidity;BMP_temperature;BMP_pressure;BME280_temperature;BME280_humidity;BME280_pressure;Samples;Min_cycle;Max_cycle;Signal;HPM_P1;HPM_P2
2022/06/05 00:01:42;;;;;;;2.22;1.75;;;;;;;;;;5032429;28;20459;-47
2022/06/05 00:04:08;;;;;;;3.35;2.17;;;;;;;;;;5024950;28;20095;-47
2022/06/05 00:06:41;;;;;;;3.30;2.15;;;;;;;;;;5021978;28;20030;-50
2022/06/05 00:09:10;;;;;;;3.47;2.15;;;;;;;;;;5023838;28;20077;-46
2022/06/05 00:11:56;;;;;;;2.47;2.05;;;;;;;;;;5047290;28;20034;-48
2022/06/05 00:14:22;;;;;;;7.63;2.45;;;;;;;;;;5011932;28;20053;-49
2022/06/05 00:16:48;;;;;;;5.38;2.30;;;;;;;;;;5028557;28;20033;-47
2022/06/05 00:19:14;;;;;;;4.15;2.42;;;;;;;;;;5029788;28;20036;-52
2022/06/05 00:21:40;;;;;;;4.07;2.40;;;;;;;;;;5022982;28;20026;-53
2022/06/05 00:24:06;;;;;;;3.05;2.20;;;;;;;;;;5046667;28;20040;-51
2022/06/05 00:26:36;;;;;;;3.00;2.22;;;;;;;;;;5035934;28;20029;-49
2022/06/05 00:29:18;;;;;;;3.22;2.63;;;;;;;;;;5036481;28;20034;-49
2022/06/05 00:32:04;;;;;;;3.10;2.38;;;;;;;;;;5031273;28;20029;-52
2022/06/05 00:34:30;;;;;;;3.58;2.70;;;;;;;;;;5006510;28;20042;-54
2022/06/05 00:36:56;;;;;;;3.80;2.60;;;;;;;;;;5033930;28;20128;-53
2022/06/05 00:39:32;;;;;;;4.80;2.78;;;;;;;;;;5049424;28;20063;-48
2022/06/05 00:42:06;;;;;;;3.60;2.45;;;;;;;;;;5029259;28;20116;-49
2022/06/05 00:44:38;;;;;;;3.17;2.22;;;;;;;;;;5028808;28;20040;-53
2022/06/05 00:47:04;;;;;;;2.55;2.30;;;;;;;;;;5031476;28;20040;-52
2022/06/05 00:49:36;;;;;;;3.30;2.22;;;;;;;;;;5016243;28;20022;-52
2022/06/05 00:52:03;;;;;;;4.55;2.33;;;;;;;;;;5038524;28;20026;-53
2022/06/05 00:54:29;;;;;;;3.80;2.38;;;;;;;;;;5042270;28;20109;-53
2022/06/05 00:56:55;;;;;;;5.90;2.85;;;;;;;;;;5051249;28;20029;-51
2022/06/05 00:59:21;;;;;;;4.70;3.00;;;;;;;;;;5029538;28;20133;-52
2022/06/05 01:01:48;;;;;;;4.53;2.50;;;;;;;;;;5037401;28;20033;-49
2022/06/05 01:04:16;;;;;;;5.22;2.90;;;;;;;;;;5020619;28;20022;-54
2022/06/05 01:06:42;;;;;;;7.07;2.88;;;;;;;;;;5038365;28;20025;-51
2022/06/05 01:09:08;;;;;;;4.13;2.60;;;;;;;;;;5025791;28;20137;-53
2022/06/05 01:11:46;;;;;;;5.45;2.72;;;;;;;;;;5026789;28;20037;-54
2022/06/05 01:14:24;;;;;;;5.82;2.80;;;;;;;;;;5039406;28;20056;-53
2022/06/05 01:16:54;;;;;;;4.90;2.40;;;;;;;;;;5030510;28;20078;-52
2022/06/05 01:19:35;;;;;;;3.67;2.70;;;;;;;;;;5017496;28;20102;-52
2022/06/05 01:22:20;;;;;;;3.40;2.50;;;;;;;;;;5037471;28;20034;-52
2022/06/05 01:25:05;;;;;;;4.65;2.85;;;;;;;;;;5020687;28;20029;-51
2022/06/05 01:27:33;;;;;;;4.22;2.92;;;;;;;;;;5044874;28;20033;-54
2022/06/05 01:30:07;;;;;;;3.25;2.45;;;;;;;;;;5043216;28;20025;-53
2022/06/05 01:32:43;;;;;;;4.45;3.00;;;;;;;;;;5045819;28;20420;-51
2022/06/05 01:35:17;;;;;;;6.03;3.03;;;;;;;;;;5023154;28;20041;-52
2022/06/05 01:37:46;;;;;;;3.65;3.00;;;;;;;;;;5026923;28;20025;-52
2022/06/05 01:40:14;;;;;;;3.78;2.97;;;;;;;;;;5040577;28;20362;-51
2022/06/05 01:42:43;;;;;;;6.47;3.03;;;;;;;;;;5043284;28;20402;-51
2022/06/05 01:45:19;;;;;;;4.65;2.80;;;;;;;;;;5030050;28;20943;-51
2022/06/05 01:47:47;;;;;;;3.70;2.67;;;;;;;;;;5034469;28;20039;-51
2022/06/05 01:50:15;;;;;;;4.95;3.10;;;;;;;;;;5031575;28;20028;-51
2022/06/05 01:53:11;;;;;;;4.82;2.97;;;;;;;;;;5034443;28;20128;-51
2022/06/05 01:55:42;;;;;;;4.97;3.30;;;;;;;;;;5014021;28;20102;-51
2022/06/05 01:58:10;;;;;;;7.03;3.28;;;;;;;;;;5035610;28;20385;-50
2022/06/05 02:00:36;;;;;;;4.43;3.22;;;;;;;;;;5040082;28;20029;-50
2022/06/05 02:03:09;;;;;;;7.97;3.35;;;;;;;;;;5033748;28;20029;-51
2022/06/05 02:05:44;;;;;;;4.57;3.45;;;;;;;;;;5034171;28;20445;-50
2022/06/05 02:08:14;;;;;;;3.97;3.00;;;;;;;;;;5049128;28;20049;-52
2022/06/05 02:10:45;;;;;;;6.05;3.25;;;;;;;;;;5035951;28;20022;-51
2022/06/05 02:13:11;;;;;;;5.70;4.05;;;;;;;;;;5041970;28;20512;-52
2022/06/05 02:15:37;;;;;;;4.68;3.28;;;;;;;;;;5019441;28;20492;-50
2022/06/05 02:18:05;;;;;;;4.93;3.45;;;;;;;;;;5020358;28;20157;-52
2022/06/05 02:20:31;;;;;;;4.50;3.33;;;;;;;;;;5029433;28;20037;-51
2022/06/05 02:22:57;;;;;;;6.45;3.70;;;;;;;;;;5030778;28;20051;-53
2022/06/05 02:25:25;;;;;;;5.43;3.22;;;;;;;;;;5024639;28;20476;-53
2022/06/05 02:27:51;;;;;;;6.30;3.35;;;;;;;;;;5039692;28;20113;-51
2022/06/05 02:30:17;;;;;;;7.22;4.03;;;;;;;;;;5032386;28;20248;-53
2022/06/05 02:33:05;;;;;;;5.38;3.83;;;;;;;;;;5035665;28;20026;-51
2022/06/05 02:35:49;;;;;;;6.35;4.00;;;;;;;;;;5030572;28;20031;-52
2022/06/05 02:38:24;;;;;;;7.35;4.60;;;;;;;;;;5038843;28;20036;-52
2022/06/05 02:41:09;;;;;;;6.07;4.13;;;;;;;;;;5030968;28;20032;-52
2022/06/05 02:43:44;;;;;;;6.95;4.47;;;;;;;;;;5027238;28;20037;-53
2022/06/05 02:46:21;;;;;;;6.10;4.10;;;;;;;;;;5036497;28;20033;-52
2022/06/05 02:48:59;;;;;;;5.75;3.88;;;;;;;;;;5034820;28;20024;-51
2022/06/05 02:51:28;;;;;;;8.43;4.28;;;;;;;;;;5034832;28;20032;-53
2022/06/05 02:53:56;;;;;;;6.18;4.18;;;;;;;;;;5039374;28;20395;-51
2022/06/05 02:56:22;;;;;;;5.22;4.18;;;;;;;;;;5030615;28;20033;-51
2022/06/05 02:58:49;;;;;;;6.25;4.15;;;;;;;;;;5050718;28;20033;-52
2022/06/05 03:04:00;;;;;;;7.50;4.45;;;;;;;;;;5018215;28;20122;-51
2022/06/05 03:06:29;;;;;;;7.15;4.68;;;;;;;;;;5035226;28;20035;-50
2022/06/05 03:08:55;;;;;;;8.05;5.03;;;;;;;;;;5050856;28;20157;-50
2022/06/05 03:11:21;;;;;;;7.40;4.97;;;;;;;;;;5044296;28;20025;-51
2022/06/05 03:13:47;;;;;;;8.98;5.25;;;;;;;;;;5031639;28;20488;-51
2022/06/05 03:16:13;;;;;;;7.97;5.03;;;;;;;;;;5031777;28;20032;-52
2022/06/05 03:18:40;;;;;;;8.68;5.70;;;;;;;;;;5034527;28;20060;-51
2022/06/05 03:21:06;;;;;;;8.43;4.72;;;;;;;;;;5020401;28;20037;-53
2022/06/05 03:23:32;;;;;;;8.88;4.22;;;;;;;;;;5039501;28;20518;-51
2022/06/05 03:25:59;;;;;;;7.07;4.82;;;;;;;;;;5035299;28;20039;-50
2022/06/05 03:28:25;;;;;;;7.95;4.18;;;;;;;;;;5034506;28;20108;-52
2022/06/05 03:30:51;;;;;;;7.00;4.65;;;;;;;;;;5028808;28;20040;-50
2022/06/05 03:33:17;;;;;;;5.47;4.32;;;;;;;;;;5024028;28;20033;-50
2022/06/05 03:35:44;;;;;;;9.77;5.30;;;;;;;;;;5028826;28;20104;-51
2022/06/05 03:38:11;;;;;;;8.43;4.85;;;;;;;;;;5041655;28;20032;-53
2022/06/05 03:40:39;;;;;;;6.55;4.78;;;;;;;;;;5035380;28;20024;-53
2022/06/05 03:43:05;;;;;;;7.53;4.80;;;;;;;;;;5038710;28;20030;-50
2022/06/05 03:45:32;;;;;;;9.68;4.80;;;;;;;;;;5021497;28;20025;-51
2022/06/05 03:47:57;;;;;;;9.30;4.90;;;;;;;;;;5033506;28;20026;-51
2022/06/05 03:50:24;;;;;;;9.88;5.30;;;;;;;;;;5032498;28;20072;-51
2022/06/05 03:52:50;;;;;;;9.10;5.43;;;;;;;;;;5033335;28;20041;-49
2022/06/05 03:55:18;;;;;;;9.40;5.13;;;;;;;;;;5043962;28;20060;-51
2022/06/05 03:57:44;;;;;;;6.07;4.63;;;;;;;;;;5024842;28;20499;-52
2022/06/05 04:00:11;;;;;;;7.80;5.20;;;;;;;;;;5036726;28;20111;-52
2022/06/05 04:02:37;;;;;;;6.82;4.82;;;;;;;;;;5010790;28;20041;-51
2022/06/05 04:05:04;;;;;;;9.30;5.38;;;;;;;;;;5037969;28;20085;-51
2022/06/05 04:07:31;;;;;;;6.70;5.07;;;;;;;;;;5045232;28;20049;-52
2022/06/05 04:09:56;;;;;;;10.55;5.10;;;;;;;;;;5014206;28;20040;-52
2022/06/05 04:12:23;;;;;;;9.50;5.18;;;;;;;;;;5014760;28;20725;-51
2022/06/05 04:14:49;;;;;;;7.47;5.25;;;;;;;;;;5034370;28;20052;-51
2022/06/05 04:17:15;;;;;;;9.05;5.50;;;;;;;;;;5022350;28;20056;-51
2022/06/05 04:19:41;;;;;;;8.38;4.97;;;;;;;;;;5026827;28;20036;-51
2022/06/05 04:22:07;;;;;;;6.20;4.63;;;;;;;;;;5034475;28;20037;-51
2022/06/05 04:24:33;;;;;;;9.05;5.10;;;;;;;;;;5041323;28;20029;-51
2022/06/05 04:26:59;;;;;;;8.35;5.53;;;;;;;;;;5043905;28;20184;-51
2022/06/05 04:29:25;;;;;;;7.20;4.50;;;;;;;;;;5041990;28;20025;-50
2022/06/05 04:31:51;;;;;;;7.65;4.85;;;;;;;;;;5021410;28;20101;-50
2022/06/05 04:34:19;;;;;;;7.13;4.53;;;;;;;;;;5026964;28;20489;-51
2022/06/05 04:36:45;;;;;;;6.32;4.97;;;;;;;;;;5026707;28;20041;-51
2022/06/05 04:39:12;;;;;;;8.48;5.57;;;;;;;;;;5045632;28;20116;-50
2022/06/05 04:41:38;;;;;;;7.22;5.18;;;;;;;;;;5039385;28;20112;-54
2022/06/05 04:44:05;;;;;;;8.25;4.95;;;;;;;;;;5011134;28;20564;-54
2022/06/05 04:46:32;;;;;;;8.02;4.97;;;;;;;;;;5012998;28;20030;-50
2022/06/05 04:48:58;;;;;;;8.43;5.45;;;;;;;;;;5022248;28;20052;-53
2022/06/05 04:51:24;;;;;;;10.52;4.72;;;;;;;;;;5029175;28;20422;-52
2022/06/05 04:53:51;;;;;;;7.38;4.95;;;;;;;;;;5032879;28;20032;-50
2022/06/05 04:56:19;;;;;;;9.10;5.65;;;;;;;;;;5045187;28;20035;-53
2022/06/05 04:58:45;;;;;;;10.55;5.13;;;;;;;;;;5036463;28;20040;-51
2022/06/05 05:01:16;;;;;;;8.93;6.18;;;;;;;;;;5042028;28;20037;-51
2022/06/05 05:03:42;;;;;;;7.90;5.53;;;;;;;;;;5027526;28;20033;-51
2022/06/05 05:06:08;;;;;;;7.70;5.47;;;;;;;;;;5027038;28;20496;-51
2022/06/05 05:08:35;;;;;;;9.27;5.55;;;;;;;;;;5013818;28;1006346;-51
2022/06/05 05:11:01;;;;;;;9.48;5.80;;;;;;;;;;5030262;28;20025;-50
2022/06/05 05:13:27;;;;;;;7.97;5.35;;;;;;;;;;5047299;28;20029;-51
2022/06/05 05:15:55;;;;;;;11.98;5.95;;;;;;;;;;5029720;28;20033;-51
2022/06/05 05:18:21;;;;;;;8.50;5.43;;;;;;;;;;5030353;28;20030;-51
2022/06/05 05:20:47;;;;;;;9.40;5.03;;;;;;;;;;5032946;28;20400;-51
2022/06/05 05:23:13;;;;;;;12.63;6.13;;;;;;;;;;5033559;28;20025;-54
2022/06/05 05:25:39;;;;;;;10.48;5.80;;;;;;;;;;5018088;28;20025;-50
2022/06/05 05:28:09;;;;;;;8.77;5.35;;;;;;;;;;5051983;28;20021;-52
2022/06/05 05:30:35;;;;;;;7.60;5.10;;;;;;;;;;5032969;28;20128;-53
2022/06/05 05:33:02;;;;;;;7.60;4.70;;;;;;;;;;5028571;28;20083;-53
2022/06/05 05:35:28;;;;;;;8.35;4.95;;;;;;;;;;5033516;28;20029;-51
2022/06/05 05:37:54;;;;;;;7.85;5.13;;;;;;;;;;5033340;28;20033;-51
2022/06/05 05:43:04;;;;;;;5.78;4.30;;;;;;;;;;5040674;28;20547;-51
2022/06/05 05:45:30;;;;;;;8.43;4.65;;;;;;;;;;5027477;28;20030;-51
2022/06/05 05:47:56;;;;;;;8.23;4.13;;;;;;;;;;5019051;28;20413;-51
2022/06/05 05:50:22;;;;;;;8.23;3.95;;;;;;;;;;5031408;28;20028;-51
2022/06/05 05:52:48;;;;;;;6.45;4.05;;;;;;;;;;5032007;28;20033;-52
2022/06/05 05:55:16;;;;;;;5.20;3.40;;;;;;;;;;5031460;28;20028;-50
2022/06/05 05:57:42;;;;;;;5.40;3.70;;;;;;;;;;5032214;28;20029;-50
2022/06/05 06:00:09;;;;;;;7.45;3.63;;;;;;;;;;5045513;28;20129;-51
2022/06/05 06:02:36;;;;;;;4.82;3.70;;;;;;;;;;5013173;28;20061;-52
2022/06/05 06:05:03;;;;;;;5.93;3.67;;;;;;;;;;5026962;28;20078;-53
2022/06/05 06:07:29;;;;;;;6.55;3.25;;;;;;;;;;5042683;28;20409;-53
2022/06/05 06:09:55;;;;;;;5.93;3.50;;;;;;;;;;5030832;28;20458;-52
2022/06/05 06:12:21;;;;;;;6.53;3.28;;;;;;;;;;5018716;28;20030;-52
2022/06/05 06:14:47;;;;;;;4.15;3.00;;;;;;;;;;5031316;28;20060;-51
2022/06/05 06:17:13;;;;;;;6.10;2.88;;;;;;;;;;5020118;28;20057;-52
2022/06/05 06:19:39;;;;;;;3.00;2.70;;;;;;;;;;5026502;28;20495;-52
2022/06/05 06:22:06;;;;;;;5.78;2.67;;;;;;;;;;5026518;28;20026;-54
2022/06/05 06:24:32;;;;;;;4.30;2.97;;;;;;;;;;5030944;28;20032;-51
2022/06/05 06:26:58;;;;;;;4.28;2.85;;;;;;;;;;5030899;28;20061;-51
2022/06/05 06:29:24;;;;;;;8.02;3.25;;;;;;;;;;5028146;28;20107;-51
2022/06/05 06:31:50;;;;;;;3.30;2.63;;;;;;;;;;5010041;28;20017;-53
2022/06/05 06:34:16;;;;;;;4.32;3.20;;;;;;;;;;5019658;28;20029;-51
2022/06/05 06:36:42;;;;;;;4.57;3.03;;;;;;;;;;5033027;28;20025;-54
2022/06/05 06:39:08;;;;;;;5.38;2.95;;;;;;;;;;5019210;28;20034;-50
2022/06/05 06:41:34;;;;;;;6.30;2.95;;;;;;;;;;5025154;28;20144;-52
2022/06/05 06:44:03;;;;;;;4.90;3.40;;;;;;;;;;5012895;28;20665;-51
2022/06/05 06:46:29;;;;;;;6.40;3.33;;;;;;;;;;5024838;28;20065;-51
2022/06/05 06:48:55;;;;;;;4.65;3.45;;;;;;;;;;5027024;28;20468;-52
2022/06/05 06:51:21;;;;;;;5.45;3.60;;;;;;;;;;5025138;28;20028;-51
2022/06/05 06:53:47;;;;;;;4.00;2.65;;;;;;;;;;5011455;28;20025;-53
2022/06/05 06:56:14;;;;;;;5.88;3.28;;;;;;;;;;5024923;28;20029;-51
2022/06/05 06:58:40;;;;;;;6.07;3.35;;;;;;;;;;5028968;28;20116;-51
2022/06/05 07:01:07;;;;;;;4.00;3.30;;;;;;;;;;5024507;28;20476;-51
2022/06/05 07:03:34;;;;;;;8.48;2.92;;;;;;;;;;5025661;28;20059;-51
2022/06/05 07:06:01;;;;;;;4.22;3.03;;;;;;;;;;5015001;28;20036;-54
2022/06/05 07:08:27;;;;;;;6.70;2.95;;;;;;;;;;5021011;28;20048;-51
2022/06/05 07:10:53;;;;;;;12.93;3.47;;;;;;;;;;5009484;28;20108;-52
2022/06/05 07:13:19;;;;;;;5.07;2.97;;;;;;;;;;5015964;28;20032;-51
2022/06/05 07:15:45;;;;;;;4.32;2.78;;;;;;;;;;5019062;28;20018;-51
2022/06/05 07:18:11;;;;;;;4.88;2.60;;;;;;;;;;5025841;28;20428;-52
2022/06/05 07:20:39;;;;;;;4.60;3.25;;;;;;;;;;5022117;28;20018;-51
2022/06/05 07:23:05;;;;;;;5.30;2.75;;;;;;;;;;5024791;28;21202;-53
2022/06/05 07:25:32;;;;;;;4.05;2.47;;;;;;;;;;5015638;28;20030;-52
2022/06/05 07:27:58;;;;;;;4.88;3.35;;;;;;;;;;5029212;28;20125;-53
2022/06/05 07:30:25;;;;;;;5.00;2.88;;;;;;;;;;5030137;28;20156;-53
2022/06/05 07:32:51;;;;;;;4.90;3.20;;;;;;;;;;5011728;28;20034;-52
2022/06/05 07:35:17;;;;;;;5.40;2.75;;;;;;;;;;5025314;28;20028;-51
2022/06/05 07:37:43;;;;;;;5.15;2.75;;;;;;;;;;5033070;28;20025;-52
2022/06/05 07:40:10;;;;;;;5.82;2.90;;;;;;;;;;5022012;28;20029;-52
2022/06/05 07:42:37;;;;;;;4.97;3.15;;;;;;;;;;5026311;28;20433;-52
2022/06/05 07:45:03;;;;;;;5.55;2.90;;;;;;;;;;5023085;28;20034;-54
2022/06/05 07:47:29;;;;;;;3.65;3.13;;;;;;;;;;5028918;28;20120;-55
2022/06/05 07:49:55;;;;;;;4.15;2.92;;;;;;;;;;5027477;28;20036;-53
2022/06/05 07:55:06;;;;;;;5.30;2.72;;;;;;;;;;5026628;28;20402;-54
2022/06/05 07:57:32;;;;;;;3.70;2.60;;;;;;;;;;5026375;28;20040;-53
2022/06/05 07:59:58;;;;;;;6.82;2.60;;;;;;;;;;5033254;28;20112;-55
2022/06/05 08:02:26;;;;;;;5.10;2.92;;;;;;;;;;5029770;28;20105;-52
2022/06/05 08:04:53;;;;;;;3.08;2.47;;;;;;;;;;5030657;28;20122;-52
2022/06/05 08:07:21;;;;;;;5.75;3.03;;;;;;;;;;5035154;28;20040;-51
2022/06/05 08:09:47;;;;;;;5.57;2.47;;;;;;;;;;5031817;28;20083;-53
2022/06/05 08:12:14;;;;;;;5.00;2.50;;;;;;;;;;5023247;28;20700;-52
2022/06/05 08:14:41;;;;;;;4.10;2.47;;;;;;;;;;5033376;28;20022;-53
2022/06/05 08:17:09;;;;;;;6.00;2.70;;;;;;;;;;5033149;28;20025;-52
2022/06/05 08:19:36;;;;;;;7.18;2.58;;;;;;;;;;5029382;28;20075;-53
2022/06/05 08:22:02;;;;;;;5.45;2.90;;;;;;;;;;5033027;28;20029;-53
2022/06/05 08:24:28;;;;;;;5.03;2.70;;;;;;;;;;5030442;28;20052;-54
2022/06/05 08:26:54;;;;;;;4.82;2.60;;;;;;;;;;5024612;28;20420;-54
2022/06/05 08:29:20;;;;;;;5.03;2.72;;;;;;;;;;5021994;28;20089;-54
2022/06/05 08:31:47;;;;;;;4.38;2.30;;;;;;;;;;5040079;28;20025;-52
2022/06/05 08:34:14;;;;;;;4.32;2.55;;;;;;;;;;5027145;28;20101;-52
2022/06/05 08:36:40;;;;;;;3.80;2.97;;;;;;;;;;5024967;28;20457;-53
2022/06/05 08:42:01;;;;;;;4.03;2.30;;;;;;;;;;5021031;28;20045;-55
2022/06/05 08:44:42;;;;;;;5.35;2.70;;;;;;;;;;5028811;28;20045;-54
2022/06/05 08:47:13;;;;;;;3.42;2.10;;;;;;;;;;5027726;28;20388;-54
2022/06/05 08:49:45;;;;;;;5.75;2.65;;;;;;;;;;5024395;28;20017;-53
2022/06/05 08:52:11;;;;;;;3.53;2.15;;;;;;;;;;5022469;28;20111;-52
2022/06/05 08:54:42;;;;;;;3.25;2.25;;;;;;;;;;5026053;28;20700;-53
2022/06/05 08:57:16;;;;;;;4.43;2.35;;;;;;;;;;5030741;28;20038;-54
2022/06/05 08:59:46;;;;;;;3.15;1.95;;;;;;;;;;5009745;28;20485;-51
2022/06/05 09:02:25;;;;;;;5.15;2.63;;;;;;;;;;5024354;28;20507;-53
2022/06/05 09:04:54;;;;;;;2.25;1.55;;;;;;;;;;5024265;28;20036;-53
2022/06/05 09:07:26;;;;;;;3.25;1.80;;;;;;;;;;5029653;28;20108;-54
2022/06/05 09:10:02;;;;;;;3.45;2.17;;;;;;;;;;5032230;28;20026;-51
2022/06/05 09:12:31;;;;;;;3.53;2.42;;;;;;;;;;5032659;28;20358;-52
2022/06/05 09:15:04;;;;;;;3.08;2.03;;;;;;;;;;5032224;28;20029;-52
2022/06/05 09:17:30;;;;;;;;;;;;;;;;;;5022407;28;20041;-55
2022/06/05 09:19:57;;;;;;;2.78;1.90;;;;;;;;;;5033609;28;20796;-53
2022/06/05 09:22:44;;;;;;;3.78;2.05;;;;;;;;;;5030867;28;20030;-51
2022/06/05 09:25:21;;;;;;;4.80;2.38;;;;;;;;;;5032010;28;20038;-53
2022/06/05 09:28:05;;;;;;;5.35;2.42;;;;;;;;;;5016799;28;20381;-53
2022/06/05 09:30:37;;;;;;;3.42;2.05;;;;;;;;;;5027910;28;20033;-53
2022/06/05 09:33:06;;;;;;;3.05;2.10;;;;;;;;;;5020410;28;20113;-54
2022/06/05 09:35:44;;;;;;;3.58;2.10;;;;;;;;;;5031375;28;20370;-52
2022/06/05 09:38:17;;;;;;;3.33;2.28;;;;;;;;;;5029333;28;20489;-53
2022/06/05 09:40:51;;;;;;;2.60;2.00;;;;;;;;;;5014413;28;20034;-54
2022/06/05 09:43:33;;;;;;;4.03;1.95;;;;;;;;;;5017258;28;21267;-51
2022/06/05 09:45:59;;;;;;;3.75;2.22;;;;;;;;;;5029367;28;20534;-54
2022/06/05 09:48:25;;;;;;;2.42;1.95;;;;;;;;;;5026053;28;20026;-54
2022/06/05 09:50:52;;;;;;;2.72;1.90;;;;;;;;;;5029403;28;20025;-53
2022/06/05 09:53:26;;;;;;;3.70;1.92;;;;;;;;;;5028851;28;20034;-51
2022/06/05 09:56:17;;;;;;;2.33;1.70;;;;;;;;;;5014234;28;20021;-54
2022/06/05 09:58:44;;;;;;;4.30;2.30;;;;;;;;;;5022704;28;20034;-53
2022/06/05 10:01:20;;;;;;;3.40;1.75;;;;;;;;;;5016876;28;20024;-53
2022/06/05 10:03:47;;;;;;;3.70;2.00;;;;;;;;;;5027273;28;20025;-54
2022/06/05 10:06:22;;;;;;;3.75;1.95;;;;;;;;;;5026673;28;20030;-52
2022/06/05 10:08:48;;;;;;;4.07;2.15;;;;;;;;;;5020782;28;20064;-53
2022/06/05 10:11:21;;;;;;;3.97;2.10;;;;;;;;;;5035039;28;20021;-54
2022/06/05 10:13:50;;;;;;;2.33;2.13;;;;;;;;;;5024064;28;20021;-55
2022/06/05 10:16:39;;;;;;;6.03;2.00;;;;;;;;;;5025834;28;20037;-51
2022/06/05 10:19:34;;;;;;;2.30;1.92;;;;;;;;;;5020972;28;20044;-53
2022/06/05 10:22:09;;;;;;;4.78;2.13;;;;;;;;;;5009256;28;20041;-54
2022/06/05 10:24:35;;;;;;;7.22;2.30;;;;;;;;;;5026298;28;20036;-54
2022/06/05 10:27:02;;;;;;;4.50;2.17;;;;;;;;;;5029468;28;20025;-53
2022/06/05 10:29:31;;;;;;;2.40;1.92;;;;;;;;;;5027565;28;20108;-55
2022/06/05 10:32:15;;;;;;;3.78;2.20;;;;;;;;;;5029089;28;20033;-52
2022/06/05 10:34:56;;;;;;;2.28;1.98;;;;;;;;;;5025926;28;20385;-52
2022/06/05 10:37:25;;;;;;;4.18;1.83;;;;;;;;;;5017578;28;20033;-54
2022/06/05 10:39:55;;;;;;;3.30;2.28;;;;;;;;;;5003645;28;20160;-56
2022/06/05 10:42:30;;;;;;;4.80;2.08;;;;;;;;;;5019138;28;20034;-53
2022/06/05 10:45:09;;;;;;;2.53;1.90;;;;;;;;;;5016249;28;20065;-52
2022/06/05 10:47:54;;;;;;;3.53;2.42;;;;;;;;;;5023377;28;20049;-53
2022/06/05 10:50:23;;;;;;;3.80;2.28;;;;;;;;;;5036621;28;20100;-55
2022/06/05 10:53:01;;;;;;;3.30;2.20;;;;;;;;;;5030481;28;20485;-54
2022/06/05 10:55:34;;;;;;;3.80;2.42;;;;;;;;;;5018624;28;20029;-55
2022/06/05 10:58:15;;;;;;;5.82;2.20;;;;;;;;;;5030617;28;20033;-55
2022/06/05 11:00:51;;;;;;;2.88;2.08;;;;;;;;;;5028399;28;20029;-53
2022/06/05 11:03:36;;;;;;;2.83;2.08;;;;;;;;;;5027332;28;20430;-54
2022/06/05 11:06:14;;;;;;;3.13;2.20;;;;;;;;;;5021890;28;20037;-54
2022/06/05 11:08:58;;;;;;;2.75;2.00;;;;;;;;;;5045132;28;20053;-52
2022/06/05 11:14:25;;;;;;;3.53;2.10;;;;;;;;;;5043445;28;20438;-55
2022/06/05 11:16:53;;;;;;;3.20;2.25;;;;;;;;;;5041511;28;20037;-54
2022/06/05 11:19:34;;;;;;;3.22;2.08;;;;;;;;;;5051944;28;20052;-54
2022/06/05 11:22:02;;;;;;;3.05;2.10;;;;;;;;;;5037025;28;20451;-55
2022/06/05 11:24:35;;;;;;;2.75;2.35;;;;;;;;;;5041507;28;20090;-54
2022/06/05 11:27:11;;;;;;;2.22;1.98;;;;;;;;;;5056319;28;20543;-56
2022/06/05 11:29:49;;;;;;;4.30;2.17;;;;;;;;;;5049121;28;20032;-55
2022/06/05 11:32:19;;;;;;;6.85;2.58;;;;;;;;;;5050704;28;20492;-55
2022/06/05 11:35:00;;;;;;;2.42;1.85;;;;;;;;;;5046132;28;20082;-55
2022/06/05 11:37:36;;;;;;;2.42;2.13;;;;;;;;;;5053810;28;20029;-53
2022/06/05 11:40:11;;;;;;;5.78;2.00;;;;;;;;;;5042414;28;20025;-55
2022/06/05 11:42:58;;;;;;;4.03;2.20;;;;;;;;;;5046956;28;20037;-54
2022/06/05 11:45:33;;;;;;;3.03;2.20;;;;;;;;;;5006296;28;20044;-55
2022/06/05 11:48:20;;;;;;;3.97;2.30;;;;;;;;;;5049947;28;20055;-54
2022/06/05 11:50:50;;;;;;;4.13;2.00;;;;;;;;;;5031861;28;20723;-56
2022/06/05 11:53:26;;;;;;;6.25;2.47;;;;;;;;;;5049660;28;20123;-55
2022/06/05 11:56:00;;;;;;;4.50;2.28;;;;;;;;;;5051146;28;20074;-55
2022/06/05 11:58:32;;;;;;;4.28;1.90;;;;;;;;;;5039226;28;20026;-55
2022/06/05 12:01:18;;;;;;;5.70;2.72;;;;;;;;;;5048341;28;20029;-56
2022/06/05 12:04:01;;;;;;;3.05;2.28;;;;;;;;;;5058185;28;20504;-55
2022/06/05 12:06:34;;;;;;;3.45;2.30;;;;;;;;;;5044732;28;20549;-55
2022/06/05 12:09:02;;;;;;;2.65;2.10;;;;;;;;;;5034845;28;20072;-55
2022/06/05 12:11:36;;;;;;;2.38;2.17;;;;;;;;;;5029749;28;20461;-54
2022/06/05 12:14:11;;;;;;;2.33;2.13;;;;;;;;;;5026381;28;20540;-56
2022/06/05 12:16:43;;;;;;;2.83;2.00;;;;;;;;;;5020786;28;20029;-56
2022/06/05 12:19:13;;;;;;;4.55;1.90;;;;;;;;;;5017261;28;20087;-56
2022/06/05 12:21:45;;;;;;;2.70;1.63;;;;;;;;;;5028773;28;20041;-57
2022/06/05 12:24:11;;;;;;;2.10;1.77;;;;;;;;;;5022140;28;20112;-52
2022/06/05 12:26:55;;;;;;;4.07;2.15;;;;;;;;;;5028949;28;20759;-55
2022/06/05 12:29:26;;;;;;;2.90;1.85;;;;;;;;;;5029832;28;20036;-53
2022/06/05 12:32:01;;;;;;;6.22;2.05;;;;;;;;;;5033902;28;20124;-56
2022/06/05 12:34:29;;;;;;;3.10;2.10;;;;;;;;;;5007531;28;20037;-56
2022/06/05 12:36:59;;;;;;;3.22;2.10;;;;;;;;;;5026353;28;20037;-55
2022/06/05 12:39:27;;;;;;;6.35;2.20;;;;;;;;;;5029073;28;20036;-56
2022/06/05 12:42:11;;;;;;;3.95;1.92;;;;;;;;;;5023915;28;20026;-53
2022/06/05 12:44:43;;;;;;;3.97;2.05;;;;;;;;;;5019750;28;20034;-53
2022/06/05 12:47:16;;;;;;;2.85;1.65;;;;;;;;;;5020348;28;20723;-52
2022/06/05 12:49:54;;;;;;;3.08;1.60;;;;;;;;;;5030743;28;20033;-53
2022/06/05 12:52:20;;;;;;;2.65;1.55;;;;;;;;;;5027822;28;20129;-54
2022/06/05 12:54:49;;;;;;;2.67;1.45;;;;;;;;;;5030494;28;20013;-53
2022/06/05 12:57:19;;;;;;;1.50;1.20;;;;;;;;;;5026575;28;20104;-53
2022/06/05 12:59:57;;;;;;;3.08;1.55;;;;;;;;;;5017157;28;20026;-54
2022/06/05 13:02:28;;;;;;;1.35;1.20;;;;;;;;;;5000248;28;20124;-56
2022/06/05 13:04:58;;;;;;;3.55;1.40;;;;;;;;;;5025241;28;20504;-53
2022/06/05 13:07:28;;;;;;;3.58;1.33;;;;;;;;;;5012234;28;20079;-54
2022/06/05 13:09:57;;;;;;;2.47;1.50;;;;;;;;;;5049831;28;20029;-53
2022/06/05 13:12:33;;;;;;;4.50;1.23;;;;;;;;;;5043913;28;20029;-53
2022/06/05 13:14:59;;;;;;;2.13;1.25;;;;;;;;;;5042000;28;20030;-54
2022/06/05 13:17:39;;;;;;;4.05;1.50;;;;;;;;;;5048682;28;20075;-54
2022/06/05 13:20:17;;;;;;;1.95;1.70;;;;;;;;;;5027456;28;20126;-55
2022/06/05 13:22:46;;;;;;;1.67;1.20;;;;;;;;;;5037958;28;20138;-54
2022/06/05 13:25:24;;;;;;;2.83;1.40;;;;;;;;;;5036733;28;20037;-52
2022/06/05 13:27:56;;;;;;;1.92;1.33;;;;;;;;;;5051091;28;20025;-54
2022/06/05 13:30:28;;;;;;;2.67;1.13;;;;;;;;;;5038130;28;20021;-54
2022/06/05 13:33:04;;;;;;;6.93;1.63;;;;;;;;;;5042726;28;20028;-55
2022/06/05 13:35:34;;;;;;;1.58;1.13;;;;;;;;;;5048127;28;20021;-54
2022/06/05 13:38:07;;;;;;;1.77;1.10;;;;;;;;;;5051296;28;20450;-55
2022/06/05 13:40:37;;;;;;;2.08;1.30;;;;;;;;;;5037942;28;20469;-55
2022/06/05 13:43:03;;;;;;;2.85;1.40;;;;;;;;;;5038003;28;20044;-54
2022/06/05 13:45:48;;;;;;;2.47;2.10;;;;;;;;;;5042736;28;20086;-55
2022/06/05 13:48:24;;;;;;;2.10;1.10;;;;;;;;;;5036368;28;20021;-55
2022/06/05 13:50:56;;;;;;;5.50;1.92;;;;;;;;;;5043997;28;20028;-55
2022/06/05 13:53:27;;;;;;;3.33;1.67;;;;;;;;;;5034647;28;20065;-54
2022/06/05 13:55:53;;;;;;;3.38;1.38;;;;;;;;;;5028506;28;20524;-54
2022/06/05 13:58:25;;;;;;;1.50;1.23;;;;;;;;;;5043912;28;20017;-55
2022/06/05 14:00:58;;;;;;;1.85;1.50;;;;;;;;;;5036945;28;20032;-56
2022/06/05 14:03:39;;;;;;;2.53;1.40;;;;;;;;;;5045854;28;20391;-55
2022/06/05 14:06:16;;;;;;;3.53;1.40;;;;;;;;;;5044960;28;20499;-54
2022/06/05 14:08:59;;;;;;;3.63;1.17;;;;;;;;;;5047013;28;20057;-53
2022/06/05 14:11:33;;;;;;;1.83;1.42;;;;;;;;;;5042532;28;20022;-55
2022/06/05 14:14:01;;;;;;;2.70;1.55;;;;;;;;;;5050550;28;20500;-53
2022/06/05 14:16:29;;;;;;;2.10;1.30;;;;;;;;;;5037039;28;20397;-54
2022/06/05 14:19:00;;;;;;;2.97;1.80;;;;;;;;;;5044928;28;20116;-55
2022/06/05 14:21:32;;;;;;;2.35;1.38;;;;;;;;;;5051729;28;20029;-55
2022/06/05 14:24:02;;;;;;;2.20;1.50;;;;;;;;;;5045464;28;20090;-55
2022/06/05 14:26:43;;;;;;;1.75;1.40;;;;;;;;;;5044035;28;20039;-54
2022/06/05 14:29:14;;;;;;;1.83;1.48;;;;;;;;;;5041215;28;20401;-54
2022/06/05 14:31:41;;;;;;;2.35;1.38;;;;;;;;;;5043311;28;20032;-54
2022/06/05 14:34:07;;;;;;;2.78;1.70;;;;;;;;;;5046226;28;20538;-54
2022/06/05 14:36:44;;;;;;;5.75;1.95;;;;;;;;;;5053014;28;20112;-54
2022/06/05 14:39:17;;;;;;;1.83;1.50;;;;;;;;;;5055509;28;20025;-54
2022/06/05 14:41:57;;;;;;;2.15;1.75;;;;;;;;;;5045367;28;20040;-54
2022/06/05 14:44:26;;;;;;;2.47;1.90;;;;;;;;;;5040555;28;20377;-53
2022/06/05 14:46:57;;;;;;;2.85;1.77;;;;;;;;;;5041551;28;20025;-53
2022/06/05 14:49:38;;;;;;;6.10;1.90;;;;;;;;;;5036986;28;20053;-54
2022/06/05 14:52:22;;;;;;;2.45;1.83;;;;;;;;;;5036722;28;20041;-52
2022/06/05 14:57:53;;;;;;;;;;;;;;;;;;5012473;28;20083;-54
2022/06/05 15:00:26;;;;;;;2.97;2.22;;;;;;;;;;5039515;28;19928;-53
2022/06/05 15:03:03;;;;;;;6.25;2.20;;;;;;;;;;5021908;28;20037;-54
2022/06/05 15:05:34;;;;;;;5.38;2.30;;;;;;;;;;5044983;28;20033;-54
2022/06/05 15:08:10;;;;;;;5.07;2.42;;;;;;;;;;5040886;28;20124;-54
2022/06/05 15:10:45;;;;;;;3.22;2.42;;;;;;;;;;5043963;28;20020;-53
2022/06/05 15:13:30;;;;;;;4.20;2.63;;;;;;;;;;5047529;28;20392;-54
2022/06/05 15:16:07;;;;;;;2.97;2.33;;;;;;;;;;5036990;28;20070;-53
2022/06/05 15:18:35;;;;;;;3.15;2.40;;;;;;;;;;5044195;28;20116;-54
2022/06/05 15:21:04;;;;;;;4.25;2.75;;;;;;;;;;5038050;28;20201;-54